Etusivu
METAR-TAF:

METAR-TAF

Lentoasemat :

Thulen lentotukikohta

Thule, Grönlanti

Leveyspiiri: 76-32N, Pituuspiiri: 068-42W, korkeus merenpinnasta: 77 m

Tämänhetkinen sää

Tämä raportti tehtiin 1 tunti ja 10 minuuttia sitten, kello 11.56 UTC
tyyntä
Lämpötila -5°C
Kosteus 73%
Ilmanpaine 1008 hPa
Näkyvyys 10 km tai enemmän
Pilvistä 4900 ft:n korkeudessa

METAR: BGTL 231156Z AUTO 00000KT 9999 OVC049 M05/M09 A2977 RMK AO2 SLP068 T10501091 11050 21065 57014 TSNO $

Aika: 10:06 (13:06 UTC)

Sääennuste

Tämä raportti tehtiin 16 tuntia ja 6 minuuttia sitten, kello 21.00 UTC
Ennuste voimassa 22. päivästä klo 21 UTC - 23. päivään klo 23 UTC
Tuuli 6 kn eri suunnista
Näkyvyys: 2401 m
Muutamia pilviä 4000 ft:n korkeudessa

TAF: BGTL 222100Z 2221/2323 VRB06KT 9999 FEW040 QNH2963INS TX00/2317Z TNM08/2308Z LAST NO AMDS AFT 2221 NEXT 2401

Säähavainnot ja -ennusteet yli 4000 lentoasemalta (METAR- ja TAF-raportit).

Käytössä olevat sääasemat on merkitty karttaan keltaisilla ja punaisilla pisteillä.

Aseta hiiri pisteen päälle nähdäksesi sääaseman nimen.

Klikkaa sitten nähdäksesi säähavainnot ja -ennusteet.

Kartan vaihtaminen: klikkaa mustalla rastilla varustettuja vihreitä pisteitä, niin voit zoomata sisään; viivalla varustettua vihreää pistettä, niin voit zoomata ulos tai vihreitä nuolia, niin pääset viereisille kartoille.


METAR-TAF: